sensor_id;sensor_type;location;lat;lon;timestamp;pressure;altitude;pressure_sealevel;temperature;humidity
66857;BME280;53766;50.280;19.160;2023-11-19T00:01:57;98966.81;;;14.46;61.41
66857;BME280;53766;50.280;19.160;2023-11-19T00:04:25;98966.81;;;14.46;61.58
66857;BME280;53766;50.280;19.160;2023-11-19T00:06:52;98973.78;;;14.47;61.24
66857;BME280;53766;50.280;19.160;2023-11-19T00:09:20;98972.09;;;14.46;61.31
66857;BME280;53766;50.280;19.160;2023-11-19T00:11:47;98968.47;;;14.47;61.28
66857;BME280;53766;50.280;19.160;2023-11-19T00:14:18;98967.00;;;14.44;61.30
66857;BME280;53766;50.280;19.160;2023-11-19T00:16:45;98972.09;;;14.46;61.24
66857;BME280;53766;50.280;19.160;2023-11-19T00:19:12;98968.47;;;14.47;61.44
66857;BME280;53766;50.280;19.160;2023-11-19T00:21:40;98948.25;;;14.46;61.13
66857;BME280;53766;50.280;19.160;2023-11-19T00:24:08;98947.28;;;14.47;61.49
66857;BME280;53766;50.280;19.160;2023-11-19T00:26:35;98948.25;;;14.46;61.15
66857;BME280;53766;50.280;19.160;2023-11-19T00:29:03;98942.97;;;14.46;61.36
66857;BME280;53766;50.280;19.160;2023-11-19T00:31:30;98935.00;;;14.46;61.42
66857;BME280;53766;50.280;19.160;2023-11-19T00:33:58;98934.19;;;14.45;61.02
66857;BME280;53766;50.280;19.160;2023-11-19T00:36:25;98941.31;;;14.45;61.08
66857;BME280;53766;50.280;19.160;2023-11-19T00:38:53;98943.16;;;14.44;61.16
66857;BME280;53766;50.280;19.160;2023-11-19T00:41:20;98938.66;;;14.45;61.19
66857;BME280;53766;50.280;19.160;2023-11-19T00:43:48;98938.66;;;14.45;61.18
66857;BME280;53766;50.280;19.160;2023-11-19T00:46:16;98933.38;;;14.45;61.31
66857;BME280;53766;50.280;19.160;2023-11-19T00:48:43;98937.84;;;14.44;60.86
66857;BME280;53766;50.280;19.160;2023-11-19T00:51:11;98941.31;;;14.45;61.17
66857;BME280;53766;50.280;19.160;2023-11-19T00:53:39;98936.00;;;14.45;61.02
66857;BME280;53766;50.280;19.160;2023-11-19T00:56:06;98939.66;;;14.44;61.12
66857;BME280;53766;50.280;19.160;2023-11-19T00:58:33;98931.69;;;14.44;60.95
66857;BME280;53766;50.280;19.160;2023-11-19T01:01:01;98933.38;;;14.45;60.98
66857;BME280;53766;50.280;19.160;2023-11-19T01:03:28;98931.53;;;14.45;60.84
66857;BME280;53766;50.280;19.160;2023-11-19T01:05:56;98933.38;;;14.45;61.18
66857;BME280;53766;50.280;19.160;2023-11-19T01:08:23;98939.50;;;14.45;60.76
66857;BME280;53766;50.280;19.160;2023-11-19T01:10:51;98931.69;;;14.44;60.77
66857;BME280;53766;50.280;19.160;2023-11-19T01:13:18;98933.38;;;14.45;60.85
66857;BME280;53766;50.280;19.160;2023-11-19T01:15:46;98930.06;;;14.43;60.93
66857;BME280;53766;50.280;19.160;2023-11-19T01:18:14;98921.09;;;14.44;60.83
66857;BME280;53766;50.280;19.160;2023-11-19T01:20:41;98922.78;;;14.45;60.67
66857;BME280;53766;50.280;19.160;2023-11-19T01:23:08;98918.63;;;14.42;60.92
66857;BME280;53766;50.280;19.160;2023-11-19T01:25:36;98911.34;;;14.44;60.67
66857;BME280;53766;50.280;19.160;2023-11-19T01:28:05;98914.97;;;14.43;60.49
66857;BME280;53766;50.280;19.160;2023-11-19T01:30:32;98902.53;;;14.44;60.63
66857;BME280;53766;50.280;19.160;2023-11-19T01:33:00;98905.19;;;14.44;60.62
66857;BME280;53766;50.280;19.160;2023-11-19T01:35:27;98907.22;;;14.42;60.53
66857;BME280;53766;50.280;19.160;2023-11-19T01:37:55;98899.25;;;14.42;60.60
66857;BME280;53766;50.280;19.160;2023-11-19T01:40:22;98886.63;;;14.44;60.63
66857;BME280;53766;50.280;19.160;2023-11-19T01:42:50;98880.72;;;14.42;60.53
66857;BME280;53766;50.280;19.160;2023-11-19T01:45:27;98886.00;;;14.42;60.84
66857;BME280;53766;50.280;19.160;2023-11-19T01:47:56;98886.00;;;14.42;60.41
66857;BME280;53766;50.280;19.160;2023-11-19T01:50:24;98880.72;;;14.42;60.75
66857;BME280;53766;50.280;19.160;2023-11-19T01:52:52;98859.50;;;14.42;60.65
66857;BME280;53766;50.280;19.160;2023-11-19T01:55:20;98859.50;;;14.42;60.56
66857;BME280;53766;50.280;19.160;2023-11-19T01:57:49;98852.53;;;14.40;60.43
66857;BME280;53766;50.280;19.160;2023-11-19T02:00:16;98857.84;;;14.40;60.45
66857;BME280;53766;50.280;19.160;2023-11-19T02:02:46;98856.19;;;14.39;60.38
66857;BME280;53766;50.280;19.160;2023-11-19T02:05:15;98839.44;;;14.39;60.69
66857;BME280;53766;50.280;19.160;2023-11-19T02:07:43;98834.16;;;14.39;60.33
66857;BME280;53766;50.280;19.160;2023-11-19T02:10:10;98833.34;;;14.38;60.28
66857;BME280;53766;50.280;19.160;2023-11-19T02:12:42;98831.34;;;14.40;60.47
66857;BME280;53766;50.280;19.160;2023-11-19T02:15:12;98813.81;;;14.39;60.44
66857;BME280;53766;50.280;19.160;2023-11-19T02:17:39;98806.84;;;14.38;60.25
66857;BME280;53766;50.280;19.160;2023-11-19T02:20:07;98797.25;;;14.37;60.32
66857;BME280;53766;50.280;19.160;2023-11-19T02:22:40;98796.22;;;14.38;60.20
66857;BME280;53766;50.280;19.160;2023-11-19T02:25:07;98782.16;;;14.38;60.45
66857;BME280;53766;50.280;19.160;2023-11-19T02:30:25;98778.69;;;14.37;60.11
66857;BME280;53766;50.280;19.160;2023-11-19T02:32:56;98770.09;;;14.35;60.30
66857;BME280;53766;50.280;19.160;2023-11-19T02:35:30;98770.75;;;14.37;60.41
66857;BME280;53766;50.280;19.160;2023-11-19T02:37:59;98765.44;;;14.37;60.45
66857;BME280;53766;50.280;19.160;2023-11-19T02:40:27;98766.44;;;14.36;60.13
66857;BME280;53766;50.280;19.160;2023-11-19T02:42:54;98748.03;;;14.35;60.41
66857;BME280;53766;50.280;19.160;2023-11-19T02:45:23;98754.19;;;14.35;60.14
66857;BME280;53766;50.280;19.160;2023-11-19T02:47:53;98748.88;;;14.35;60.12
66857;BME280;53766;50.280;19.160;2023-11-19T02:50:20;98725.19;;;14.34;59.92
66857;BME280;53766;50.280;19.160;2023-11-19T02:52:53;98715.41;;;14.34;60.04
66857;BME280;53766;50.280;19.160;2023-11-19T02:55:20;98696.22;;;14.32;60.03
66857;BME280;53766;50.280;19.160;2023-11-19T02:57:48;98706.00;;;14.32;60.27
66857;BME280;53766;50.280;19.160;2023-11-19T03:00:19;98714.75;;;14.32;60.05
66857;BME280;53766;50.280;19.160;2023-11-19T03:02:50;98706.00;;;14.32;60.24
66857;BME280;53766;50.280;19.160;2023-11-19T03:05:41;98697.06;;;14.33;60.13
66857;BME280;53766;50.280;19.160;2023-11-19T03:08:09;98707.66;;;14.33;60.28
66857;BME280;53766;50.280;19.160;2023-11-19T03:10:36;98724.38;;;14.33;59.94
66857;BME280;53766;50.280;19.160;2023-11-19T03:13:03;98720.72;;;14.34;60.31
66857;BME280;53766;50.280;19.160;2023-11-19T03:15:30;98712.13;;;14.32;60.25
66857;BME280;53766;50.280;19.160;2023-11-19T03:17:58;98705.19;;;14.31;60.19
66857;BME280;53766;50.280;19.160;2023-11-19T03:20:25;98697.88;;;14.33;60.15
66857;BME280;53766;50.280;19.160;2023-11-19T03:22:54;98694.59;;;14.31;59.69
66857;BME280;53766;50.280;19.160;2023-11-19T03:25:22;98696.41;;;14.31;60.06
66857;BME280;53766;50.280;19.160;2023-11-19T03:27:49;98693.75;;;14.31;59.86
66857;BME280;53766;50.280;19.160;2023-11-19T03:30:16;98689.28;;;14.31;60.12
66857;BME280;53766;50.280;19.160;2023-11-19T03:32:44;98689.28;;;14.31;59.70
66857;BME280;53766;50.280;19.160;2023-11-19T03:35:12;98675.38;;;14.29;59.98
66857;BME280;53766;50.280;19.160;2023-11-19T03:37:39;98684.97;;;14.30;59.85
66857;BME280;53766;50.280;19.160;2023-11-19T03:40:07;98686.78;;;14.30;59.82
66857;BME280;53766;50.280;19.160;2023-11-19T03:42:34;98675.38;;;14.29;59.92
66857;BME280;53766;50.280;19.160;2023-11-19T03:45:02;98672.72;;;14.29;59.79
66857;BME280;53766;50.280;19.160;2023-11-19T03:47:31;98659.47;;;14.29;59.99
66857;BME280;53766;50.280;19.160;2023-11-19T03:49:58;98648.06;;;14.29;59.65
66857;BME280;53766;50.280;19.160;2023-11-19T03:52:25;98638.28;;;14.29;59.82
66857;BME280;53766;50.280;19.160;2023-11-19T03:54:54;98629.69;;;14.27;59.70
66857;BME280;53766;50.280;19.160;2023-11-19T03:57:22;98628.88;;;14.27;59.69
66857;BME280;53766;50.280;19.160;2023-11-19T03:59:50;98627.03;;;14.27;59.89
66857;BME280;53766;50.280;19.160;2023-11-19T04:02:17;98617.41;;;14.26;59.89
66857;BME280;53766;50.280;19.160;2023-11-19T04:04:44;98608.50;;;14.27;59.68
66857;BME280;53766;50.280;19.160;2023-11-19T04:07:12;98596.22;;;14.26;59.70
66857;BME280;53766;50.280;19.160;2023-11-19T04:09:39;98603.19;;;14.27;59.63
66857;BME280;53766;50.280;19.160;2023-11-19T04:12:07;98596.22;;;14.26;59.64
66857;BME280;53766;50.280;19.160;2023-11-19T04:14:36;98599.88;;;14.25;59.47
66857;BME280;53766;50.280;19.160;2023-11-19T04:17:03;98588.47;;;14.25;59.62
66857;BME280;53766;50.280;19.160;2023-11-19T04:19:30;98603.56;;;14.24;59.48
66857;BME280;53766;50.280;19.160;2023-11-19T04:22:00;98595.59;;;14.24;59.76
66857;BME280;53766;50.280;19.160;2023-11-19T04:24:27;98596.59;;;14.23;59.56
66857;BME280;53766;50.280;19.160;2023-11-19T04:26:54;98591.28;;;14.23;59.52
66857;BME280;53766;50.280;19.160;2023-11-19T04:29:21;98588.63;;;14.23;59.59
66857;BME280;53766;50.280;19.160;2023-11-19T04:31:49;98583.34;;;14.23;59.67
66857;BME280;53766;50.280;19.160;2023-11-19T04:34:16;98586.00;;;14.23;59.70
66857;BME280;53766;50.280;19.160;2023-11-19T04:36:44;98571.94;;;14.23;59.55
66857;BME280;53766;50.280;19.160;2023-11-19T04:39:11;98575.41;;;14.23;59.22
66857;BME280;53766;50.280;19.160;2023-11-19T04:41:48;98566.78;;;14.21;59.50
66857;BME280;53766;50.280;19.160;2023-11-19T04:44:16;98569.28;;;14.23;59.29
66857;BME280;53766;50.280;19.160;2023-11-19T04:46:44;98563.16;;;14.22;59.58
66857;BME280;53766;50.280;19.160;2023-11-19T04:49:13;98565.81;;;14.22;59.32
66857;BME280;53766;50.280;19.160;2023-11-19T04:51:44;98561.50;;;14.21;59.46
66857;BME280;53766;50.280;19.160;2023-11-19T04:54:14;98563.31;;;14.20;59.45
66857;BME280;53766;50.280;19.160;2023-11-19T04:56:44;98571.28;;;14.20;59.51
66857;BME280;53766;50.280;19.160;2023-11-19T04:59:12;98558.19;;;14.19;59.24
66857;BME280;53766;50.280;19.160;2023-11-19T05:01:39;98551.91;;;14.20;59.60
66857;BME280;53766;50.280;19.160;2023-11-19T05:04:07;98561.50;;;14.21;59.49
66857;BME280;53766;50.280;19.160;2023-11-19T05:06:34;98553.72;;;14.19;59.43
66857;BME280;53766;50.280;19.160;2023-11-19T05:09:02;98549.25;;;14.20;59.33
66857;BME280;53766;50.280;19.160;2023-11-19T05:11:35;98551.25;;;14.18;59.51
66857;BME280;53766;50.280;19.160;2023-11-19T05:14:02;98552.91;;;14.19;59.28
66857;BME280;53766;50.280;19.160;2023-11-19T05:16:33;98557.38;;;14.18;59.51
66857;BME280;53766;50.280;19.160;2023-11-19T05:19:00;98551.25;;;14.18;59.24
66857;BME280;53766;50.280;19.160;2023-11-19T05:21:27;98545.97;;;14.18;59.18
66857;BME280;53766;50.280;19.160;2023-11-19T05:23:55;98526.78;;;14.16;59.37
66857;BME280;53766;50.280;19.160;2023-11-19T05:26:23;98510.88;;;14.16;59.28
66857;BME280;53766;50.280;19.160;2023-11-19T05:28:51;98509.03;;;14.16;59.29
66857;BME280;53766;50.280;19.160;2023-11-19T05:31:18;98505.56;;;14.16;59.14
66857;BME280;53766;50.280;19.160;2023-11-19T05:33:45;98505.56;;;14.16;59.24
66857;BME280;53766;50.280;19.160;2023-11-19T05:36:13;98494.16;;;14.15;59.38
66857;BME280;53766;50.280;19.160;2023-11-19T05:38:40;98491.53;;;14.15;59.28
66857;BME280;53766;50.280;19.160;2023-11-19T05:41:08;98475.63;;;14.15;59.37
66857;BME280;53766;50.280;19.160;2023-11-19T05:43:35;98477.44;;;14.15;59.08
66857;BME280;53766;50.280;19.160;2023-11-19T05:46:03;98472.13;;;14.15;59.16
66857;BME280;53766;50.280;19.160;2023-11-19T05:48:30;98481.25;;;14.12;59.23
66857;BME280;53766;50.280;19.160;2023-11-19T05:50:57;98479.44;;;14.13;59.04
66857;BME280;53766;50.280;19.160;2023-11-19T05:53:24;98497.97;;;14.13;59.09
66857;BME280;53766;50.280;19.160;2023-11-19T05:55:52;98484.56;;;14.14;58.77
66857;BME280;53766;50.280;19.160;2023-11-19T05:58:26;98484.72;;;14.13;58.95
66857;BME280;53766;50.280;19.160;2023-11-19T06:00:55;98491.69;;;14.14;59.21
66857;BME280;53766;50.280;19.160;2023-11-19T06:03:23;98486.56;;;14.12;58.99
66857;BME280;53766;50.280;19.160;2023-11-19T06:05:52;98495.97;;;14.15;59.19
66857;BME280;53766;50.280;19.160;2023-11-19T06:08:19;98494.16;;;14.15;59.05
66857;BME280;53766;50.280;19.160;2023-11-19T06:10:47;98505.56;;;14.16;59.48
66857;BME280;53766;50.280;19.160;2023-11-19T06:13:17;98494.78;;;14.17;59.20
66857;BME280;53766;50.280;19.160;2023-11-19T06:15:45;98497.44;;;14.17;59.56
66857;BME280;53766;50.280;19.160;2023-11-19T06:18:12;98500.28;;;14.16;59.38
66857;BME280;53766;50.280;19.160;2023-11-19T06:20:40;98506.22;;;14.18;59.59
66857;BME280;53766;50.280;19.160;2023-11-19T06:23:09;98502.72;;;14.17;59.64
66857;BME280;53766;50.280;19.160;2023-11-19T06:25:37;98491.31;;;14.17;59.89
66857;BME280;53766;50.280;19.160;2023-11-19T06:28:05;98496.63;;;14.17;59.65
66857;BME280;53766;50.280;19.160;2023-11-19T06:30:32;98486.03;;;14.17;59.85
66857;BME280;53766;50.280;19.160;2023-11-19T06:33:00;98478.06;;;14.17;59.74
66857;BME280;53766;50.280;19.160;2023-11-19T06:35:28;98469.31;;;14.16;59.94
66857;BME280;53766;50.280;19.160;2023-11-19T06:38:02;98464.84;;;14.17;59.72
66857;BME280;53766;50.280;19.160;2023-11-19T06:40:32;98469.16;;;14.18;59.79
66857;BME280;53766;50.280;19.160;2023-11-19T06:42:59;98452.25;;;14.19;59.72
66857;BME280;53766;50.280;19.160;2023-11-19T06:45:27;98433.88;;;14.17;59.83
66857;BME280;53766;50.280;19.160;2023-11-19T06:47:54;98433.06;;;14.17;59.51
66857;BME280;53766;50.280;19.160;2023-11-19T06:50:22;98445.31;;;14.18;59.43
66857;BME280;53766;50.280;19.160;2023-11-19T06:52:50;98441.66;;;14.19;59.81
66857;BME280;53766;50.280;19.160;2023-11-19T06:55:18;98425.75;;;14.19;59.50
66857;BME280;53766;50.280;19.160;2023-11-19T06:57:45;98424.28;;;14.16;59.57
66857;BME280;53766;50.280;19.160;2023-11-19T07:00:12;98422.44;;;14.17;59.47
66857;BME280;53766;50.280;19.160;2023-11-19T07:02:40;98423.28;;;14.17;59.67
66857;BME280;53766;50.280;19.160;2023-11-19T07:05:07;98426.13;;;14.16;59.81
66857;BME280;53766;50.280;19.160;2023-11-19T07:07:35;98420.81;;;14.16;59.77
66857;BME280;53766;50.280;19.160;2023-11-19T07:10:03;98422.44;;;14.17;59.51
66857;BME280;53766;50.280;19.160;2023-11-19T07:12:31;98425.09;;;14.17;59.33
66857;BME280;53766;50.280;19.160;2023-11-19T07:14:59;98427.75;;;14.17;59.40
66857;BME280;53766;50.280;19.160;2023-11-19T07:17:27;98421.63;;;14.16;59.23
66857;BME280;53766;50.280;19.160;2023-11-19T07:19:54;98428.56;;;14.17;59.43
66857;BME280;53766;50.280;19.160;2023-11-19T07:22:22;98415.53;;;14.16;59.09
66857;BME280;53766;50.280;19.160;2023-11-19T07:24:49;98410.22;;;14.16;59.44
66857;BME280;53766;50.280;19.160;2023-11-19T07:27:17;98409.41;;;14.15;59.22
66857;BME280;53766;50.280;19.160;2023-11-19T07:29:45;98397.97;;;14.15;59.16
66857;BME280;53766;50.280;19.160;2023-11-19T07:32:13;98396.97;;;14.16;59.18
66857;BME280;53766;50.280;19.160;2023-11-19T07:34:43;98399.63;;;14.16;59.11
66857;BME280;53766;50.280;19.160;2023-11-19T07:37:11;98404.13;;;14.15;59.07
66857;BME280;53766;50.280;19.160;2023-11-19T07:39:39;98411.03;;;14.16;59.34
66857;BME280;53766;50.280;19.160;2023-11-19T07:42:08;98398.63;;;14.17;59.14
66857;BME280;53766;50.280;19.160;2023-11-19T07:44:37;98397.81;;;14.16;59.32
66857;BME280;53766;50.280;19.160;2023-11-19T07:47:04;98395.97;;;14.17;59.15
66857;BME280;53766;50.280;19.160;2023-11-19T07:49:31;98387.03;;;14.18;59.52
66857;BME280;53766;50.280;19.160;2023-11-19T07:51:59;98375.59;;;14.17;59.24
66857;BME280;53766;50.280;19.160;2023-11-19T07:54:26;98370.28;;;14.17;59.29
66857;BME280;53766;50.280;19.160;2023-11-19T07:56:53;98365.84;;;14.18;59.43
66857;BME280;53766;50.280;19.160;2023-11-19T07:59:21;98356.88;;;14.19;59.45
66857;BME280;53766;50.280;19.160;2023-11-19T08:01:48;98361.38;;;14.18;59.55
66857;BME280;53766;50.280;19.160;2023-11-19T08:04:16;98359.53;;;14.19;59.46
66857;BME280;53766;50.280;19.160;2023-11-19T08:06:43;98347.94;;;14.20;59.54
66857;BME280;53766;50.280;19.160;2023-11-19T08:09:11;98340.00;;;14.20;59.66
66857;BME280;53766;50.280;19.160;2023-11-19T08:11:41;98339.00;;;14.21;59.97
66857;BME280;53766;50.280;19.160;2023-11-19T08:14:09;98329.22;;;14.22;59.79
66857;BME280;53766;50.280;19.160;2023-11-19T08:16:36;98325.56;;;14.23;59.90
66857;BME280;53766;50.280;19.160;2023-11-19T08:19:05;98330.88;;;14.23;60.26
66857;BME280;53766;50.280;19.160;2023-11-19T08:21:32;98332.72;;;14.22;60.14
66857;BME280;53766;50.280;19.160;2023-11-19T08:23:59;98330.06;;;14.22;60.01
66857;BME280;53766;50.280;19.160;2023-11-19T08:26:26;98321.09;;;14.23;60.08
66857;BME280;53766;50.280;19.160;2023-11-19T08:28:54;98322.75;;;14.24;60.27
66857;BME280;53766;50.280;19.160;2023-11-19T08:31:22;98320.09;;;14.24;60.05
66857;BME280;53766;50.280;19.160;2023-11-19T08:33:49;98315.81;;;14.23;60.28
66857;BME280;53766;50.280;19.160;2023-11-19T08:36:17;98310.50;;;14.23;60.04
66857;BME280;53766;50.280;19.160;2023-11-19T08:38:45;98322.75;;;14.24;60.47
66857;BME280;53766;50.280;19.160;2023-11-19T08:41:12;98319.09;;;14.25;60.38
66857;BME280;53766;50.280;19.160;2023-11-19T08:43:40;98319.09;;;14.25;60.48
66857;BME280;53766;50.280;19.160;2023-11-19T08:46:11;98318.28;;;14.25;60.68
66857;BME280;53766;50.280;19.160;2023-11-19T08:48:39;98308.50;;;14.25;60.95
66857;BME280;53766;50.280;19.160;2023-11-19T08:51:07;98312.78;;;14.26;61.04
66857;BME280;53766;50.280;19.160;2023-11-19T08:53:34;98303.19;;;14.25;60.98
66857;BME280;53766;50.280;19.160;2023-11-19T08:56:03;98298.72;;;14.26;61.07
66857;BME280;53766;50.280;19.160;2023-11-19T08:58:31;98293.41;;;14.26;61.19
66857;BME280;53766;50.280;19.160;2023-11-19T09:00:58;98303.03;;;14.27;61.05
66857;BME280;53766;50.280;19.160;2023-11-19T09:03:26;98295.91;;;14.27;60.90
66857;BME280;53766;50.280;19.160;2023-11-19T09:05:54;98287.94;;;14.27;60.94
66857;BME280;53766;50.280;19.160;2023-11-19T09:08:21;98280.81;;;14.28;61.16
66857;BME280;53766;50.280;19.160;2023-11-19T09:10:49;98261.47;;;14.27;60.86
66857;BME280;53766;50.280;19.160;2023-11-19T09:13:16;98251.03;;;14.26;60.97
66857;BME280;53766;50.280;19.160;2023-11-19T09:15:43;98254.50;;;14.26;61.11
66857;BME280;53766;50.280;19.160;2023-11-19T09:18:11;98249.84;;;14.28;61.05
66857;BME280;53766;50.280;19.160;2023-11-19T09:20:39;98249.19;;;14.26;61.11
66857;BME280;53766;50.280;19.160;2023-11-19T09:23:06;98253.50;;;14.27;60.98
66857;BME280;53766;50.280;19.160;2023-11-19T09:25:36;98255.16;;;14.28;61.04
66857;BME280;53766;50.280;19.160;2023-11-19T09:28:06;98254.31;;;14.28;61.45
66857;BME280;53766;50.280;19.160;2023-11-19T09:30:35;98259.63;;;14.28;61.67
66857;BME280;53766;50.280;19.160;2023-11-19T09:33:03;98242.91;;;14.27;61.57
66857;BME280;53766;50.280;19.160;2023-11-19T09:35:30;98239.25;;;14.28;61.96
66857;BME280;53766;50.280;19.160;2023-11-19T09:37:58;98232.16;;;14.29;61.82
66857;BME280;53766;50.280;19.160;2023-11-19T09:40:27;98217.06;;;14.29;62.02
66857;BME280;53766;50.280;19.160;2023-11-19T09:42:55;98222.38;;;14.29;61.84
66857;BME280;53766;50.280;19.160;2023-11-19T09:45:23;98216.06;;;14.30;61.97
66857;BME280;53766;50.280;19.160;2023-11-19T09:47:54;98211.59;;;14.31;62.15
66857;BME280;53766;50.280;19.160;2023-11-19T09:50:24;98195.69;;;14.31;61.76
66857;BME280;53766;50.280;19.160;2023-11-19T09:52:51;98186.91;;;14.30;61.88
66857;BME280;53766;50.280;19.160;2023-11-19T09:55:18;98191.22;;;14.31;61.67
66857;BME280;53766;50.280;19.160;2023-11-19T09:57:46;98175.31;;;14.31;61.74
66857;BME280;53766;50.280;19.160;2023-11-19T10:00:14;98174.50;;;14.31;61.61
66857;BME280;53766;50.280;19.160;2023-11-19T10:02:43;98172.03;;;14.29;61.37
66857;BME280;53766;50.280;19.160;2023-11-19T10:05:14;98168.38;;;14.30;61.41
66857;BME280;53766;50.280;19.160;2023-11-19T10:07:42;98147.16;;;14.30;61.46
66857;BME280;53766;50.280;19.160;2023-11-19T10:10:10;98154.13;;;14.31;61.39
66857;BME280;53766;50.280;19.160;2023-11-19T10:12:41;98153.31;;;14.31;61.45
66857;BME280;53766;50.280;19.160;2023-11-19T10:15:24;98139.06;;;14.32;61.24
66857;BME280;53766;50.280;19.160;2023-11-19T10:17:56;98137.41;;;14.31;61.12
66857;BME280;53766;50.280;19.160;2023-11-19T10:20:23;98133.75;;;14.32;60.94
66857;BME280;53766;50.280;19.160;2023-11-19T10:22:54;98127.47;;;14.33;60.95
66857;BME280;53766;50.280;19.160;2023-11-19T10:25:23;98128.44;;;14.32;61.12
66857;BME280;53766;50.280;19.160;2023-11-19T10:27:51;98119.06;;;14.29;60.95
66857;BME280;53766;50.280;19.160;2023-11-19T10:30:25;98112.72;;;14.30;61.16
66857;BME280;53766;50.280;19.160;2023-11-19T10:35:33;98104.78;;;14.30;60.76
66857;BME280;53766;50.280;19.160;2023-11-19T10:38:03;98100.34;;;14.31;60.69
66857;BME280;53766;50.280;19.160;2023-11-19T10:40:40;98099.50;;;14.30;60.88
66857;BME280;53766;50.280;19.160;2023-11-19T10:43:08;98104.78;;;14.30;60.87
66857;BME280;53766;50.280;19.160;2023-11-19T10:45:35;98088.09;;;14.30;60.65
66857;BME280;53766;50.280;19.160;2023-11-19T10:48:03;98085.44;;;14.30;60.85
66857;BME280;53766;50.280;19.160;2023-11-19T10:50:34;98071.38;;;14.29;61.00
66857;BME280;53766;50.280;19.160;2023-11-19T10:53:03;98064.06;;;14.31;60.85
66857;BME280;53766;50.280;19.160;2023-11-19T10:55:32;98053.47;;;14.31;61.13
66857;BME280;53766;50.280;19.160;2023-11-19T10:58:01;98049.16;;;14.30;60.90
66857;BME280;53766;50.280;19.160;2023-11-19T11:00:33;98045.69;;;14.30;61.15
66857;BME280;53766;50.280;19.160;2023-11-19T11:03:26;98043.69;;;14.32;60.88
66857;BME280;53766;50.280;19.160;2023-11-19T11:05:52;98041.22;;;14.30;60.79
66857;BME280;53766;50.280;19.160;2023-11-19T11:08:20;98050.81;;;14.31;61.10
66857;BME280;53766;50.280;19.160;2023-11-19T11:10:52;98045.69;;;14.30;60.93
66857;BME280;53766;50.280;19.160;2023-11-19T11:13:23;98045.69;;;14.30;60.97
66857;BME280;53766;50.280;19.160;2023-11-19T11:15:51;98039.94;;;14.26;60.98
66857;BME280;53766;50.280;19.160;2023-11-19T11:18:18;98033.00;;;14.25;61.02
66857;BME280;53766;50.280;19.160;2023-11-19T11:20:45;98029.34;;;14.26;61.05
66857;BME280;53766;50.280;19.160;2023-11-19T11:26:10;98027.72;;;14.25;60.99
66857;BME280;53766;50.280;19.160;2023-11-19T11:28:46;98024.03;;;14.26;60.81
66857;BME280;53766;50.280;19.160;2023-11-19T11:36:46;97988.00;;;14.25;60.96
66857;BME280;53766;50.280;19.160;2023-11-19T11:39:18;97998.41;;;14.27;60.97
66857;BME280;53766;50.280;19.160;2023-11-19T11:42:18;97996.56;;;14.27;60.95
66857;BME280;53766;50.280;19.160;2023-11-19T11:47:23;97990.25;;;14.28;61.41
66857;BME280;53766;50.280;19.160;2023-11-19T11:49:50;97982.94;;;14.30;61.40
66857;BME280;53766;50.280;19.160;2023-11-19T11:52:19;97984.59;;;14.31;61.18
66857;BME280;53766;50.280;19.160;2023-11-19T11:54:47;97979.28;;;14.31;61.19
66857;BME280;53766;50.280;19.160;2023-11-19T11:57:14;97977.28;;;14.33;61.21
66857;BME280;53766;50.280;19.160;2023-11-19T12:02:12;97975.25;;;14.35;61.22
66857;BME280;53766;50.280;19.160;2023-11-19T12:04:41;97968.13;;;14.36;61.36
66857;BME280;53766;50.280;19.160;2023-11-19T12:07:11;97962.81;;;14.36;61.40
66857;BME280;53766;50.280;19.160;2023-11-19T12:09:42;97967.94;;;14.37;61.42
66857;BME280;53766;50.280;19.160;2023-11-19T12:17:38;97944.34;;;14.43;61.68
66857;BME280;53766;50.280;19.160;2023-11-19T12:20:08;97943.31;;;14.44;61.85
66857;BME280;53766;50.280;19.160;2023-11-19T12:22:39;97940.66;;;14.44;61.76
66857;BME280;53766;50.280;19.160;2023-11-19T12:25:07;97935.19;;;14.45;62.00
66857;BME280;53766;50.280;19.160;2023-11-19T12:27:36;97935.00;;;14.47;62.16
66857;BME280;53766;50.280;19.160;2023-11-19T12:30:04;97930.34;;;14.49;62.45
66857;BME280;53766;50.280;19.160;2023-11-19T12:32:38;97930.97;;;14.51;62.55
66857;BME280;53766;50.280;19.160;2023-11-19T12:35:06;97920.38;;;14.51;62.38
66857;BME280;53766;50.280;19.160;2023-11-19T12:42:41;97911.06;;;14.55;62.64
66857;BME280;53766;50.280;19.160;2023-11-19T12:45:09;97906.56;;;14.55;62.60
66857;BME280;53766;50.280;19.160;2023-11-19T12:47:40;97903.75;;;14.57;62.59
66857;BME280;53766;50.280;19.160;2023-11-19T12:50:08;97890.28;;;14.58;62.78
66857;BME280;53766;50.280;19.160;2023-11-19T12:52:35;97892.13;;;14.58;62.57
66857;BME280;53766;50.280;19.160;2023-11-19T12:55:04;97882.88;;;14.54;62.55
66857;BME280;53766;50.280;19.160;2023-11-19T12:57:39;97882.25;;;14.52;61.97
66857;BME280;53766;50.280;19.160;2023-11-19T13:00:08;97880.00;;;14.49;62.20
66857;BME280;53766;50.280;19.160;2023-11-19T13:02:45;97869.75;;;14.46;62.19
66857;BME280;53766;50.280;19.160;2023-11-19T13:05:24;97876.09;;;14.45;62.02
66857;BME280;53766;50.280;19.160;2023-11-19T13:08:03;97880.75;;;14.43;62.14
66857;BME280;53766;50.280;19.160;2023-11-19T13:10:32;97880.13;;;14.40;61.95
66857;BME280;53766;50.280;19.160;2023-11-19T13:13:03;97870.56;;;14.39;61.66
66857;BME280;53766;50.280;19.160;2023-11-19T13:15:32;97861.97;;;14.37;62.02
66857;BME280;53766;50.280;19.160;2023-11-19T13:17:59;97861.97;;;14.37;62.07
66857;BME280;53766;50.280;19.160;2023-11-19T13:20:28;97864.88;;;14.43;62.82
66857;BME280;53766;50.280;19.160;2023-11-19T13:25:26;97864.47;;;14.46;62.73
66857;BME280;53766;50.280;19.160;2023-11-19T13:27:53;97861.44;;;14.49;62.99
66857;BME280;53766;50.280;19.160;2023-11-19T13:30:21;97857.78;;;14.50;62.95